Time;durP1;ratioP1;P1;durP2;ratioP2;P2;SDS_P1;SDS_P2;PMS_P1;PMS_P2;Temp;Humidity;BMP_temperature;BMP_pressure;BME280_temperature;BME280_humidity;BME280_pressure;Samples;Min_cycle;Max_cycle;Signal;HPM_P1;HPM_P2
2022/05/11 00:00:08;;;;;;;;;;;;;;;;;;4977429;28;19914;-67
2022/05/11 00:02:34;;;;;;;;;;;;;;;;;;4976928;28;19945;-67
2022/05/11 00:05:00;;;;;;;;;;;;;;;;;;4977334;28;19917;-67
2022/05/11 00:07:25;;;;;;;;;;;;;;;;;;4977087;28;19910;-67
2022/05/11 00:09:51;;;;;;;;;;;;;;;;;;4976808;28;19910;-67
2022/05/11 00:12:17;;;;;;;;;;;;;;;;;;4977210;28;19909;-67
2022/05/11 00:14:43;;;;;;;;;;;;;;;;;;4977036;28;19917;-67
2022/05/11 00:17:09;;;;;;;;;;;;;;;;;;4977184;28;19914;-67
2022/05/11 00:19:36;;;;;;;;;;;;;;;;;;4976655;28;19961;-67
2022/05/11 00:22:02;;;;;;;;;;;;;;;;;;4976709;28;19924;-67
2022/05/11 00:24:28;;;;;;;;;;;;;;;;;;4977244;28;19996;-67
2022/05/11 00:26:54;;;;;;;;;;;;;;;;;;4976665;28;19910;-67
2022/05/11 00:29:20;;;;;;;;;;;;;;;;;;4976769;28;20475;-67
2022/05/11 00:31:47;;;;;;;;;;;;;;;;;;4976996;28;19938;-67
2022/05/11 00:34:13;;;;;;;;;;;;;;;;;;4976645;28;19944;-67
2022/05/11 00:36:39;;;;;;;;;;;;;;;;;;4976633;28;19910;-67
2022/05/11 00:39:05;;;;;;;;;;;;;;;;;;4976539;28;19921;-67
2022/05/11 00:41:31;;;;;;;;;;;;;;;;;;4976870;28;19918;-67
2022/05/11 00:43:57;;;;;;;;;;;;;;;;;;4977923;28;19934;-67
2022/05/11 00:46:23;;;;;;;;;;;;;;;;;;4976712;28;19914;-67
2022/05/11 00:51:34;;;;;;;;;;;;;;;;;;4976232;28;19917;-67
2022/05/11 00:54:00;;;;;;;;;;;;;;;;;;4977455;28;19916;-67
2022/05/11 00:56:27;;;;;;;;;;;;;;;;;;4976433;28;20273;-67
2022/05/11 00:58:53;;;;;;;;;;;;;;;;;;4976475;28;20239;-67
2022/05/11 01:01:19;;;;;;;;;;;;;;;;;;4976817;28;19969;-67
2022/05/11 01:03:45;;;;;;;;;;;;;;;;;;4976715;28;19910;-67
2022/05/11 01:06:11;;;;;;;;;;;;;;;;;;4976305;28;19950;-67
2022/05/11 01:08:37;;;;;;;;;;;;;;;;;;4976537;28;19910;-67
2022/05/11 01:11:04;;;;;;;;;;;;;;;;;;4975718;28;19922;-67
2022/05/11 01:13:30;;;;;;;;;;;;;;;;;;4975911;28;19918;-67
2022/05/11 01:15:56;;;;;;;;;;;;;;;;;;4976195;28;20325;-67
2022/05/11 01:18:24;;;;;;;;;;;;;;;;;;4976038;28;20010;-67
2022/05/11 01:20:51;;;;;;;;;;;;;;;;;;4975762;28;20365;-67
2022/05/11 01:23:17;;;;;;;;;;;;;;;;;;4976010;28;19917;-67
2022/05/11 01:25:43;;;;;;;;;;;;;;;;;;4975835;28;19910;-67
2022/05/11 01:28:12;;;;;;;;;;;;;;;;;;4975871;28;19964;-67
2022/05/11 01:30:38;;;;;;;;;;;;;;;;;;4975977;28;19964;-67
2022/05/11 01:33:04;;;;;;;;;;;;;;;;;;4976643;28;19910;-67
2022/05/11 01:35:30;;;;;;;;;;;;;;;;;;4978142;28;20273;-67
2022/05/11 01:37:56;;;;;;;;;;;;;;;;;;4980129;28;19917;-67
2022/05/11 01:40:22;;;;;;;;;;;;;;;;;;4979577;28;19917;-67
2022/05/11 01:42:48;;;;;;;;;;;;;;;;;;4979199;28;20001;-67
2022/05/11 01:45:14;;;;;;;;;;;;;;;;;;4979763;28;19952;-67
2022/05/11 01:47:40;;;;;;;;;;;;;;;;;;4979748;28;19910;-67
2022/05/11 01:50:06;;;;;;;;;;;;;;;;;;4979598;28;19917;-67
2022/05/11 01:52:32;;;;;;;;;;;;;;;;;;4980018;28;19989;-67
2022/05/11 01:54:57;;;;;;;;;;;;;;;;;;4979588;28;19910;-67
2022/05/11 01:57:24;;;;;;;;;;;;;;;;;;4979375;28;20387;-67
2022/05/11 01:59:50;;;;;;;;;;;;;;;;;;4979946;28;19910;-67
2022/05/11 02:02:16;;;;;;;;;;;;;;;;;;4979607;28;20304;-67
2022/05/11 02:10:11;;;;;;;;;;;;;;;;;;4978977;28;19952;-67
2022/05/11 02:12:38;;;;;;;;;;;;;;;;;;4979399;28;19937;-67
2022/05/11 02:15:04;;;;;;;;;;;;;;;;;;4980020;28;19976;-67
2022/05/11 02:17:30;;;;;;;;;;;;;;;;;;4979158;28;19918;-67
2022/05/11 02:19:56;;;;;;;;;;;;;;;;;;4979413;28;20377;-67
2022/05/11 02:22:22;;;;;;;;;;;;;;;;;;4979463;28;19936;-67
2022/05/11 02:24:48;;;;;;;;;;;;;;;;;;4978802;28;19910;-67
2022/05/11 02:27:14;;;;;;;;;;;;;;;;;;4979139;28;20021;-67
2022/05/11 02:29:40;;;;;;;;;;;;;;;;;;4978896;28;19910;-67
2022/05/11 02:32:06;;;;;;;;;;;;;;;;;;4979266;28;19949;-67
2022/05/11 02:37:16;;;;;;;;;;;;;;;;;;4978309;28;19924;-67
2022/05/11 02:39:42;;;;;;;;;;;;;;;;;;4978511;28;19953;-67
2022/05/11 02:42:08;;;;;;;;;;;;;;;;;;4978538;28;19965;-67
2022/05/11 02:44:34;;;;;;;;;;;;;;;;;;4979315;28;20234;-67
2022/05/11 02:47:01;;;;;;;;;;;;;;;;;;4978390;28;20004;-67
2022/05/11 02:49:27;;;;;;;;;;;;;;;;;;4978407;28;19916;-67
2022/05/11 02:51:53;;;;;;;;;;;;;;;;;;4978638;28;19916;-67
2022/05/11 02:54:19;;;;;;;;;;;;;;;;;;4978524;28;19910;-67
2022/05/11 02:56:45;;;;;;;;;;;;;;;;;;4977990;28;19914;-67
2022/05/11 02:59:11;;;;;;;;;;;;;;;;;;4978047;28;19949;-67
2022/05/11 03:01:37;;;;;;;;;;;;;;;;;;4978978;28;20318;-67
2022/05/11 03:04:03;;;;;;;;;;;;;;;;;;4978322;28;20005;-67
2022/05/11 03:06:29;;;;;;;;;;;;;;;;;;4978877;28;20349;-67
2022/05/11 03:08:55;;;;;;;;;;;;;;;;;;4978262;28;20277;-67
2022/05/11 03:11:21;;;;;;;;;;;;;;;;;;4978281;28;19913;-67
2022/05/11 03:13:47;;;;;;;;;;;;;;;;;;4978081;28;19945;-67
2022/05/11 03:16:13;;;;;;;;;;;;;;;;;;4978072;28;19910;-67
2022/05/11 03:18:39;;;;;;;;;;;;;;;;;;4978025;28;19945;-67
2022/05/11 03:21:05;;;;;;;;;;;;;;;;;;4978023;28;19910;-67
2022/05/11 03:23:31;;;;;;;;;;;;;;;;;;4978575;28;20300;-67
2022/05/11 03:25:57;;;;;;;;;;;;;;;;;;4977955;28;19936;-67
2022/05/11 03:28:23;;;;;;;;;;;;;;;;;;4978160;28;19910;-67
2022/05/11 03:30:49;;;;;;;;;;;;;;;;;;4977955;28;19972;-67
2022/05/11 03:35:59;;;;;;;;;;;;;;;;;;4977274;28;19936;-67
2022/05/11 03:38:25;;;;;;;;;;;;;;;;;;4977941;28;20341;-67
2022/05/11 03:40:51;;;;;;;;;;;;;;;;;;4977770;28;20380;-67
2022/05/11 03:43:17;;;;;;;;;;;;;;;;;;4977904;28;19918;-67
2022/05/11 03:45:43;;;;;;;;;;;;;;;;;;4978442;28;19973;-67
2022/05/11 03:48:09;;;;;;;;;;;;;;;;;;4978084;28;19914;-67
2022/05/11 03:50:36;;;;;;;;;;;;;;;;;;4977816;28;20004;-67
2022/05/11 03:53:02;;;;;;;;;;;;;;;;;;4977467;28;19910;-67
2022/05/11 03:55:28;;;;;;;;;;;;;;;;;;4977619;28;19913;-67
2022/05/11 03:57:54;;;;;;;;;;;;;;;;;;4976524;28;19918;-67
2022/05/11 04:00:21;;;;;;;;;;;;;;;;;;4977354;28;20304;-67
2022/05/11 04:02:46;;;;;;;;;;;;;;;;;;4978213;28;19910;-67
2022/05/11 04:05:13;;;;;;;;;;;;;;;;;;4977610;28;19917;-67
2022/05/11 04:07:39;;;;;;;;;;;;;;;;;;4977253;28;19910;-67
2022/05/11 04:10:05;;;;;;;;;;;;;;;;;;4977680;28;19910;-67
2022/05/11 04:12:31;;;;;;;;;;;;;;;;;;4976927;28;20002;-67
2022/05/11 04:14:57;;;;;;;;;;;;;;;;;;4977594;28;19914;-67
2022/05/11 04:17:23;;;;;;;;;;;;;;;;;;4977481;28;19926;-67
2022/05/11 04:19:49;;;;;;;;;;;;;;;;;;4979483;28;19910;-67
2022/05/11 04:22:15;;;;;;;;;;;;;;;;;;4988556;28;19910;-67
2022/05/11 04:24:41;;;;;;;;;;;;;;;;;;4985631;28;20020;-67
2022/05/11 04:27:07;;;;;;;;;;;;;;;;;;4985471;28;20368;-67
2022/05/11 04:29:33;;;;;;;;;;;;;;;;;;4979100;28;19956;-67
2022/05/11 04:31:58;;;;;;;;;;;;;;;;;;4977388;28;19910;-68
2022/05/11 04:34:24;;;;;;;;;;;;;;;;;;4976999;28;19957;-67
2022/05/11 04:36:50;;;;;;;;;;;;;;;;;;4977258;28;19914;-69
2022/05/11 04:39:17;;;;;;;;;;;;;;;;;;4976455;28;19925;-67
2022/05/11 04:41:43;;;;;;;;;;;;;;;;;;4975895;28;20341;-67
2022/05/11 04:44:09;;;;;;;;;;;;;;;;;;4976254;28;20349;-67
2022/05/11 04:46:35;;;;;;;;;;;;;;;;;;4977055;28;19910;-67
2022/05/11 04:49:16;;;;;;;;;;;;;;;;;;4976509;28;19985;-67
2022/05/11 04:51:42;;;;;;;;;;;;;;;;;;4976996;28;19917;-67
2022/05/11 04:54:08;;;;;;;;;;;;;;;;;;4976141;28;19910;-67
2022/05/11 04:56:34;;;;;;;;;;;;;;;;;;4976262;28;19964;-67
2022/05/11 04:59:00;;;;;;;;;;;;;;;;;;4976277;28;20007;-67
2022/05/11 05:01:26;;;;;;;;;;;;;;;;;;4976419;28;19914;-67
2022/05/11 05:03:52;;;;;;;;;;;;;;;;;;4975879;28;19910;-67
2022/05/11 05:06:18;;;;;;;;;;;;;;;;;;4976002;28;19910;-67
2022/05/11 05:08:44;;;;;;;;;;;;;;;;;;4976243;28;19961;-67
2022/05/11 05:11:10;;;;;;;;;;;;;;;;;;4975536;28;19910;-67
2022/05/11 05:13:36;;;;;;;;;;;;;;;;;;4976214;28;19996;-67
2022/05/11 05:16:02;;;;;;;;;;;;;;;;;;4975805;28;19910;-67
2022/05/11 05:18:28;;;;;;;;;;;;;;;;;;4975802;28;19918;-67
2022/05/11 05:20:55;;;;;;;;;;;;;;;;;;4976257;28;19949;-67
2022/05/11 05:23:21;;;;;;;;;;;;;;;;;;4975727;28;19921;-67
2022/05/11 05:25:47;;;;;;;;;;;;;;;;;;4976014;28;20265;-67
2022/05/11 05:31:09;;;;;;;;;;;;;;;;;;4975534;28;19916;-67
2022/05/11 05:33:35;;;;;;;;;;;;;;;;;;4975827;28;19910;-67
2022/05/11 05:36:01;;;;;;;;;;;;;;;;;;4976006;28;19921;-67
2022/05/11 05:38:27;;;;;;;;;;;;;;;;;;4976103;28;19944;-67
2022/05/11 05:40:54;;;;;;;;;;;;;;;;;;4976100;28;20333;-67
2022/05/11 05:43:20;;;;;;;;;;;;;;;;;;4975193;28;20001;-67
2022/05/11 05:45:46;;;;;;;;;;;;;;;;;;4975964;28;19949;-67
2022/05/11 05:48:12;;;;;;;;;;;;;;;;;;4993730;28;19910;-67
2022/05/11 05:50:38;;;;;;;;;;;;;;;;;;4994936;28;19917;-67
2022/05/11 05:53:04;;;;;;;;;;;;;;;;;;4994927;28;19910;-67
2022/05/11 05:55:30;;;;;;;;;;;;;;;;;;4994437;28;19910;-67
2022/05/11 05:57:56;;;;;;;;;;;;;;;;;;4994259;28;19972;-67
2022/05/11 06:00:22;;;;;;;;;;;;;;;;;;4994366;28;19949;-67
2022/05/11 06:02:48;;;;;;;;;;;;;;;;;;4996014;28;19980;-67
2022/05/11 06:05:15;;;;;;;;;;;;;;;;;;4995154;28;20419;-67
2022/05/11 06:07:41;;;;;;;;;;;;;;;;;;4995287;28;20000;-67
2022/05/11 06:10:07;;;;;;;;;;;;;;;;;;4994262;28;19956;-67
2022/05/11 06:12:33;;;;;;;;;;;;;;;;;;4994314;28;19917;-67
2022/05/11 06:14:59;;;;;;;;;;;;;;;;;;4995187;28;19910;-67
2022/05/11 06:17:25;;;;;;;;;;;;;;;;;;4995266;28;19952;-67
2022/05/11 06:19:52;;;;;;;;;;;;;;;;;;4993670;28;20072;-67
2022/05/11 06:22:18;;;;;;;;;;;;;;;;;;4997383;28;19909;-67
2022/05/11 06:24:44;;;;;;;;;;;;;;;;;;4998561;28;20353;-67
2022/05/11 06:27:10;;;;;;;;;;;;;;;;;;4998093;28;19917;-67
2022/05/11 06:29:36;;;;;;;;;;;;;;;;;;4997967;28;19909;-67
2022/05/11 06:32:02;;;;;;;;;;;;;;;;;;4997887;28;19909;-67
2022/05/11 06:34:28;;;;;;;;;;;;;;;;;;4997546;28;19972;-67
2022/05/11 06:36:54;;;;;;;;;;;;;;;;;;4998031;28;19917;-67
2022/05/11 06:39:21;;;;;;;;;;;;;;;;;;4997534;28;19924;-67
2022/05/11 06:41:47;;;;;;;;;;;;;;;;;;4997011;28;20420;-67
2022/05/11 06:44:13;;;;;;;;;;;;;;;;;;4989084;28;19960;-67
2022/05/11 06:46:39;;;;;;;;;;;;;;;;;;4995269;28;20380;-67
2022/05/11 06:49:05;;;;;;;;;;;;;;;;;;4992108;28;19945;-67
2022/05/11 06:51:31;;;;;;;;;;;;;;;;;;4993191;28;20420;-67
2022/05/11 06:59:26;;;;;;;;;;;;;;;;;;4994566;28;20008;-67
2022/05/11 07:01:52;;;;;;;;;;;;;;;;;;4996882;28;19909;-68
2022/05/11 07:04:22;;;;;;;;;;;;;;;;;;4996119;28;19909;-67
2022/05/11 07:06:48;;;;;;;;;;;;;;;;;;4998007;28;19910;-67
2022/05/11 07:09:14;;;;;;;;;;;;;;;;;;4998181;28;20372;-67
2022/05/11 07:14:25;;;;;;;;;;;;;;;;;;4992266;28;20369;-67
2022/05/11 07:16:51;;;;;;;;;;;;;;;;;;4990365;28;19914;-67
2022/05/11 07:19:21;;;;;;;;;;;;;;;;;;4989775;28;19925;-67
2022/05/11 07:21:47;;;;;;;;;;;;;;;;;;4982760;28;19910;-67
2022/05/11 07:24:13;;;;;;;;;;;;;;;;;;4980130;28;19910;-67
2022/05/11 07:26:40;;;;;;;;;;;;;;;;;;4979689;28;19910;-67
2022/05/11 07:29:06;;;;;;;;;;;;;;;;;;4997670;28;19925;-67
2022/05/11 07:31:32;;;;;;;;;;;;;;;;;;4997722;28;20261;-67
2022/05/11 07:33:58;;;;;;;;;;;;;;;;;;4992534;28;19910;-67
2022/05/11 07:36:24;;;;;;;;;;;;;;;;;;4986672;28;19910;-67
2022/05/11 07:38:50;;;;;;;;;;;;;;;;;;4977915;28;19925;-67
2022/05/11 07:41:16;;;;;;;;;;;;;;;;;;4994643;28;20349;-67
2022/05/11 07:43:42;;;;;;;;;;;;;;;;;;4997257;28;19971;-67
2022/05/11 07:46:09;;;;;;;;;;;;;;;;;;4996780;28;19910;-67
2022/05/11 07:48:35;;;;;;;;;;;;;;;;;;4997045;28;20378;-67
2022/05/11 07:51:01;;;;;;;;;;;;;;;;;;4982239;28;20000;-67
2022/05/11 07:53:27;;;;;;;;;;;;;;;;;;4977333;28;19945;-67
2022/05/11 08:01:27;;;;;;;;;;;;;;;;;;4996147;28;19917;-67
2022/05/11 08:03:53;;;;;;;;;;;;;;;;;;4997214;28;19916;-67
2022/05/11 08:06:19;;;;;;;;;;;;;;;;;;4984727;28;19910;-67
2022/05/11 08:08:45;;;;;;;;;;;;;;;;;;4977122;28;19910;-67
2022/05/11 08:11:11;;;;;;;;;;;;;;;;;;4977073;28;19914;-66
2022/05/11 08:13:37;;;;;;;;;;;;;;;;;;4977010;28;20005;-67
2022/05/11 08:16:03;;;;;;;;;;;;;;;;;;4976854;28;19914;-67
2022/05/11 08:18:29;;;;;;;;;;;;;;;;;;4977706;28;19973;-67
2022/05/11 08:20:55;;;;;;;;;;;;;;;;;;4976763;28;19940;-67
2022/05/11 08:23:21;;;;;;;;;;;;;;;;;;4977507;28;19914;-67
2022/05/11 08:25:48;;;;;;;;;;;;;;;;;;4987373;28;19910;-67
2022/05/11 08:28:14;;;;;;;;;;;;;;;;;;4990934;28;20352;-67
2022/05/11 08:33:28;;;;;;;;;;;;;;;;;;4994667;28;20391;-67
2022/05/11 08:35:54;;;;;;;;;;;;;;;;;;4994782;28;20348;-68
2022/05/11 08:38:20;;;;;;;;;;;;;;;;;;4995429;28;19921;-67
2022/05/11 08:40:46;;;;;;;;;;;;;;;;;;4991488;28;19938;-67
2022/05/11 08:43:12;;;;;;;;;;;;;;;;;;4986115;28;19917;-67
2022/05/11 08:45:39;;;;;;;;;;;;;;;;;;4993430;28;19936;-67
2022/05/11 08:48:06;;;;;;;;;;;;;;;;;;4995420;28;19916;-67
2022/05/11 08:50:32;;;;;;;;;;;;;;;;;;4996240;28;19909;-67
2022/05/11 08:52:58;;;;;;;;;;;;;;;;;;4996353;28;20001;-67
2022/05/11 08:55:24;;;;;;;;;;;;;;;;;;4996461;28;20004;-67
2022/05/11 08:57:50;;;;;;;;;;;;;;;;;;4995359;28;19924;-67
2022/05/11 09:00:16;;;;;;;;;;;;;;;;;;4996073;28;19910;-67
2022/05/11 09:02:42;;;;;;;;;;;;;;;;;;4996383;28;20352;-67
2022/05/11 09:05:08;;;;;;;;;;;;;;;;;;4995727;28;19910;-67
2022/05/11 09:07:34;;;;;;;;;;;;;;;;;;4995948;28;20388;-67
2022/05/11 09:10:00;;;;;;;;;;;;;;;;;;4995953;28;19909;-67
2022/05/11 09:12:26;;;;;;;;;;;;;;;;;;4995506;28;19917;-67
2022/05/11 09:14:52;;;;;;;;;;;;;;;;;;4996207;28;19910;-67
2022/05/11 09:17:19;;;;;;;;;;;;;;;;;;4995510;28;20438;-67
2022/05/11 09:19:45;;;;;;;;;;;;;;;;;;4995649;28;19956;-67
2022/05/11 09:22:13;;;;;;;;;;;;;;;;;;4996131;28;19918;-67
2022/05/11 09:24:38;;;;;;;;;;;;;;;;;;4995737;28;20004;-67
2022/05/11 09:27:04;;;;;;;;;;;;;;;;;;4995647;28;19953;-67
2022/05/11 09:29:31;;;;;;;;;;;;;;;;;;4995527;28;19956;-67
2022/05/11 09:31:57;;;;;;;;;;;;;;;;;;4995465;28;19910;-67
2022/05/11 09:34:24;;;;;;;;;;;;;;;;;;4996107;28;19916;-67
2022/05/11 09:36:49;;;;;;;;;;;;;;;;;;4995659;28;20336;-67
2022/05/11 09:39:15;;;;;;;;;;;;;;;;;;4995293;28;19924;-67
2022/05/11 09:41:41;;;;;;;;;;;;;;;;;;4995486;28;20422;-67
2022/05/11 09:44:08;;;;;;;;;;;;;;;;;;4995553;28;20004;-67
2022/05/11 09:46:34;;;;;;;;;;;;;;;;;;4995226;28;19910;-67
2022/05/11 09:49:00;;;;;;;;;;;;;;;;;;4994943;28;19910;-67
2022/05/11 09:51:26;;;;;;;;;;;;;;;;;;4995844;28;19916;-67
2022/05/11 09:53:52;;;;;;;;;;;;;;;;;;4995539;28;19914;-67
2022/05/11 09:56:18;;;;;;;;;;;;;;;;;;4996856;28;19948;-67
2022/05/11 09:58:44;;;;;;;;;;;;;;;;;;4999306;28;19921;-67
2022/05/11 10:01:10;;;;;;;;;;;;;;;;;;4999063;28;20353;-67
2022/05/11 10:03:36;;;;;;;;;;;;;;;;;;4998589;28;20311;-67
2022/05/11 10:06:02;;;;;;;;;;;;;;;;;;4998960;28;20012;-67
2022/05/11 10:08:28;;;;;;;;;;;;;;;;;;4998921;28;20341;-67
2022/05/11 10:10:54;;;;;;;;;;;;;;;;;;4998856;28;20265;-67
2022/05/11 10:13:20;;;;;;;;;;;;;;;;;;4998276;28;19909;-67
2022/05/11 10:24:00;;;;;;;;;;;;;;;;;;4998125;28;19916;-67
2022/05/11 10:26:26;;;;;;;;;;;;;;;;;;4998398;28;19909;-67
2022/05/11 10:28:52;;;;;;;;;;;;;;;;;;4998649;28;19916;-67
2022/05/11 10:31:18;;;;;;;;;;;;;;;;;;4997883;28;19916;-67
2022/05/11 10:33:44;;;;;;;;;;;;;;;;;;4998704;28;19910;-67
2022/05/11 10:36:10;;;;;;;;;;;;;;;;;;4998085;28;19916;-67
2022/05/11 10:38:36;;;;;;;;;;;;;;;;;;4998286;28;19943;-67
2022/05/11 10:41:02;;;;;;;;;;;;;;;;;;4998172;28;20365;-68
2022/05/11 10:43:28;;;;;;;;;;;;;;;;;;4997807;28;20016;-68
2022/05/11 10:45:54;;;;;;;;;;;;;;;;;;4998787;28;19916;-68
2022/05/11 10:48:20;;;;;;;;;;;;;;;;;;4998433;28;19910;-68
2022/05/11 10:50:46;;;;;;;;;;;;;;;;;;4998275;28;20337;-68
2022/05/11 10:53:12;;;;;;;;;;;;;;;;;;4998362;28;19917;-67
2022/05/11 10:55:38;;;;;;;;;;;;;;;;;;4998274;28;19909;-67
2022/05/11 10:58:04;;;;;;;;;;;;;;;;;;4980414;28;20064;-67
2022/05/11 11:00:30;;;;;;;;;;;;;;;;;;4998047;28;19910;-68
2022/05/11 11:02:56;;;;;;;;;;;;;;;;;;4981113;28;19992;-66
2022/05/11 11:05:22;;;;;;;;;;;;;;;;;;5001167;28;20293;-67
2022/05/11 11:07:49;;;;;;;;;;;;;;;;;;4998468;28;19956;-67
2022/05/11 11:10:15;;;;;;;;;;;;;;;;;;4997905;28;19917;-67
2022/05/11 11:12:41;;;;;;;;;;;;;;;;;;4998024;28;19920;-67
2022/05/11 11:15:07;;;;;;;;;;;;;;;;;;4997683;28;20292;-68
2022/05/11 11:17:33;;;;;;;;;;;;;;;;;;4997787;28;19921;-67
2022/05/11 11:19:59;;;;;;;;;;;;;;;;;;4997871;28;19972;-67
2022/05/11 11:22:25;;;;;;;;;;;;;;;;;;4997976;28;19992;-68
2022/05/11 11:24:51;;;;;;;;;;;;;;;;;;4997906;28;20317;-68
2022/05/11 11:27:17;;;;;;;;;;;;;;;;;;4997217;28;19910;-68
2022/05/11 11:29:43;;;;;;;;;;;;;;;;;;4997697;28;19916;-67
2022/05/11 11:32:09;;;;;;;;;;;;;;;;;;4998091;28;19909;-67
2022/05/11 11:34:35;;;;;;;;;;;;;;;;;;4997603;28;19916;-67
2022/05/11 11:37:01;;;;;;;;;;;;;;;;;;4997406;28;19913;-67
2022/05/11 11:39:27;;;;;;;;;;;;;;;;;;4997458;28;19925;-68
2022/05/11 11:41:53;;;;;;;;;;;;;;;;;;4996877;28;19952;-68
2022/05/11 11:44:20;;;;;;;;;;;;;;;;;;4997058;28;19940;-68
2022/05/11 11:46:46;;;;;;;;;;;;;;;;;;4996479;28;19913;-68
2022/05/11 11:49:12;;;;;;;;;;;;;;;;;;4997321;28;19916;-68
2022/05/11 11:51:38;;;;;;;;;;;;;;;;;;4997531;28;19917;-68
2022/05/11 11:54:04;;;;;;;;;;;;;;;;;;4996773;28;19910;-67
2022/05/11 11:56:30;;;;;;;;;;;;;;;;;;4997293;28;20399;-67
2022/05/11 11:58:56;;;;;;;;;;;;;;;;;;4996300;28;20016;-67
2022/05/11 12:01:25;;;;;;;;;;;;;;;;;;4987299;28;19981;-67
2022/05/11 12:03:51;;;;;;;;;;;;;;;;;;4992536;28;19910;-67
2022/05/11 12:17:16;;;;;;;;;;;;;;;;;;4994835;28;20284;-67
2022/05/11 12:19:42;;;;;;;;;;;;;;;;;;4994739;28;19910;-67
2022/05/11 12:22:11;;;;;;;;;;;;;;;;;;4995459;28;20380;-67
2022/05/11 12:24:37;;;;;;;;;;;;;;;;;;4995307;28;19910;-68
2022/05/11 12:27:03;;;;;;;;;;;;;;;;;;4995107;28;19920;-68
2022/05/11 12:32:14;;;;;;;;;;;;;;;;;;4994596;28;20384;-67
2022/05/11 12:34:41;;;;;;;;;;;;;;;;;;4995699;28;19910;-67
2022/05/11 12:37:07;;;;;;;;;;;;;;;;;;4995912;28;19916;-67
2022/05/11 12:39:33;;;;;;;;;;;;;;;;;;4995641;28;19921;-67
2022/05/11 12:42:00;;;;;;;;;;;;;;;;;;4995325;28;20016;-67
2022/05/11 12:44:29;;;;;;;;;;;;;;;;;;4995630;28;19910;-67
2022/05/11 12:46:56;;;;;;;;;;;;;;;;;;4995186;28;20356;-67
2022/05/11 12:49:22;;;;;;;;;;;;;;;;;;4995386;28;19920;-67
2022/05/11 12:51:48;;;;;;;;;;;;;;;;;;4995297;28;19993;-67
2022/05/11 12:54:14;;;;;;;;;;;;;;;;;;4995514;28;20353;-67
2022/05/11 12:56:41;;;;;;;;;;;;;;;;;;4995335;28;19937;-67
2022/05/11 12:59:07;;;;;;;;;;;;;;;;;;4995570;28;20364;-67
2022/05/11 13:01:33;;;;;;;;;;;;;;;;;;4995325;28;20043;-67
2022/05/11 13:03:58;;;;;;;;;;;;;;;;;;4995080;28;19964;-67
2022/05/11 13:06:24;;;;;;;;;;;;;;;;;;4995475;28;20371;-67
2022/05/11 13:08:50;;;;;;;;;;;;;;;;;;4995257;28;19914;-67
2022/05/11 13:11:17;;;;;;;;;;;;;;;;;;4994960;28;20360;-67
2022/05/11 13:13:43;;;;;;;;;;;;;;;;;;4995009;28;19992;-68
2022/05/11 13:16:09;;;;;;;;;;;;;;;;;;4995445;28;20359;-67
2022/05/11 13:18:35;;;;;;;;;;;;;;;;;;4995034;28;19918;-67
2022/05/11 13:21:01;;;;;;;;;;;;;;;;;;4995272;28;19909;-67
2022/05/11 13:23:27;;;;;;;;;;;;;;;;;;4994804;28;19910;-67
2022/05/11 13:25:53;;;;;;;;;;;;;;;;;;4995430;28;20004;-67
2022/05/11 13:28:19;;;;;;;;;;;;;;;;;;4995358;28;19956;-67
2022/05/11 13:30:46;;;;;;;;;;;;;;;;;;4996389;28;19909;-67
2022/05/11 13:33:12;;;;;;;;;;;;;;;;;;4999362;28;19914;-67
2022/05/11 13:35:38;;;;;;;;;;;;;;;;;;4999387;28;20273;-67
2022/05/11 13:38:04;;;;;;;;;;;;;;;;;;4999189;28;19918;-67
2022/05/11 13:40:31;;;;;;;;;;;;;;;;;;4999048;28;19910;-67
2022/05/11 13:42:57;;;;;;;;;;;;;;;;;;4998154;28;19924;-67
2022/05/11 13:45:23;;;;;;;;;;;;;;;;;;4998408;28;19909;-67
2022/05/11 13:50:33;;;;;;;;;;;;;;;;;;4998544;28;19964;-67
2022/05/11 13:53:00;;;;;;;;;;;;;;;;;;4999772;28;19992;-67
2022/05/11 13:55:26;;;;;;;;;;;;;;;;;;4999163;28;19909;-67
2022/05/11 13:57:52;;;;;;;;;;;;;;;;;;4998471;28;20400;-67
2022/05/11 14:00:18;;;;;;;;;;;;;;;;;;4999155;28;20317;-68
2022/05/11 14:02:43;;;;;;;;;;;;;;;;;;4998466;28;19910;-68
2022/05/11 14:05:09;;;;;;;;;;;;;;;;;;4999150;28;19910;-67
2022/05/11 14:07:35;;;;;;;;;;;;;;;;;;4998558;28;19910;-67
2022/05/11 14:10:01;;;;;;;;;;;;;;;;;;4998846;28;19913;-68
2022/05/11 14:12:27;;;;;;;;;;;;;;;;;;4999286;28;20368;-68
2022/05/11 14:14:53;;;;;;;;;;;;;;;;;;4998814;28;19917;-68
2022/05/11 14:17:20;;;;;;;;;;;;;;;;;;4996669;28;20369;-68
2022/05/11 14:19:46;;;;;;;;;;;;;;;;;;4997528;28;19925;-68
2022/05/11 14:22:12;;;;;;;;;;;;;;;;;;4996964;28;19913;-68
2022/05/11 14:24:39;;;;;;;;;;;;;;;;;;4998316;28;19910;-68
2022/05/11 14:27:05;;;;;;;;;;;;;;;;;;4996554;28;19909;-68
2022/05/11 14:29:31;;;;;;;;;;;;;;;;;;4997851;28;19920;-68
2022/05/11 14:31:58;;;;;;;;;;;;;;;;;;4998007;28;19977;-68
2022/05/11 14:34:24;;;;;;;;;;;;;;;;;;4998106;28;19952;-68
2022/05/11 14:36:50;;;;;;;;;;;;;;;;;;4998400;28;19909;-68
2022/05/11 14:39:16;;;;;;;;;;;;;;;;;;4998240;28;19965;-68
2022/05/11 14:41:42;;;;;;;;;;;;;;;;;;4997493;28;19950;-69
2022/05/11 14:44:08;;;;;;;;;;;;;;;;;;4998042;28;19916;-68
2022/05/11 14:46:34;;;;;;;;;;;;;;;;;;4998243;28;20273;-68
2022/05/11 14:49:00;;;;;;;;;;;;;;;;;;4998707;28;19963;-68
2022/05/11 14:51:26;;;;;;;;;;;;;;;;;;4998780;28;19909;-68
2022/05/11 14:53:52;;;;;;;;;;;;;;;;;;4997849;28;19914;-68
2022/05/11 14:56:19;;;;;;;;;;;;;;;;;;4997942;28;19936;-68
2022/05/11 15:04:31;;;;;;;;;;;;;;;;;;4918530;29;19911;-68
2022/05/11 15:06:57;;;;;;;;;;;;;;;;;;4981000;28;20309;-68
2022/05/11 15:09:25;;;;;;;;;;;;;;;;;;4997552;28;19913;-68
2022/05/11 15:14:36;;;;;;;;;;;;;;;;;;4997235;28;19916;-68
2022/05/11 15:17:02;;;;;;;;;;;;;;;;;;4997426;28;20374;-68
2022/05/11 15:19:28;;;;;;;;;;;;;;;;;;4997657;28;20012;-68
2022/05/11 15:21:54;;;;;;;;;;;;;;;;;;4997939;28;20009;-68
2022/05/11 15:24:20;;;;;;;;;;;;;;;;;;4997285;28;19909;-68
2022/05/11 15:26:46;;;;;;;;;;;;;;;;;;4997906;28;20297;-68
2022/05/11 15:29:12;;;;;;;;;;;;;;;;;;4997468;28;19913;-68
2022/05/11 15:31:38;;;;;;;;;;;;;;;;;;4997505;28;20349;-68
2022/05/11 15:34:04;;;;;;;;;;;;;;;;;;4997277;28;19910;-68
2022/05/11 15:36:30;;;;;;;;;;;;;;;;;;4997315;28;19910;-68
2022/05/11 15:38:56;;;;;;;;;;;;;;;;;;4997742;28;20411;-68
2022/05/11 15:41:22;;;;;;;;;;;;;;;;;;4997595;28;19980;-68
2022/05/11 15:43:48;;;;;;;;;;;;;;;;;;4997221;28;19971;-68
2022/05/11 15:46:13;;;;;;;;;;;;;;;;;;4997085;28;19909;-68
2022/05/11 15:48:39;;;;;;;;;;;;;;;;;;4997656;28;19909;-68
2022/05/11 15:51:05;;;;;;;;;;;;;;;;;;4997357;28;20423;-68
2022/05/11 15:53:33;;;;;;;;;;;;;;;;;;4996646;28;20037;-68
2022/05/11 15:55:59;;;;;;;;;;;;;;;;;;4996719;28;20279;-68
2022/05/11 15:58:25;;;;;;;;;;;;;;;;;;4997394;28;19945;-68
2022/05/11 16:00:51;;;;;;;;;;;;;;;;;;4997207;28;19914;-68
2022/05/11 16:03:17;;;;;;;;;;;;;;;;;;4997107;28;19916;-68
2022/05/11 16:05:43;;;;;;;;;;;;;;;;;;4997001;28;19910;-68
2022/05/11 16:08:09;;;;;;;;;;;;;;;;;;4997565;28;19910;-68
2022/05/11 16:10:35;;;;;;;;;;;;;;;;;;4996942;28;20261;-68
2022/05/11 16:13:01;;;;;;;;;;;;;;;;;;4996613;28;20357;-68
2022/05/11 16:15:28;;;;;;;;;;;;;;;;;;4996757;28;19917;-68
2022/05/11 16:20:38;;;;;;;;;;;;;;;;;;4996255;28;19917;-68
2022/05/11 16:23:06;;;;;;;;;;;;;;;;;;4996451;28;19910;-68
2022/05/11 16:25:32;;;;;;;;;;;;;;;;;;4996660;28;19913;-68
2022/05/11 16:27:58;;;;;;;;;;;;;;;;;;4997074;28;19909;-68
2022/05/11 16:30:24;;;;;;;;;;;;;;;;;;4996556;28;19916;-68
2022/05/11 16:32:50;;;;;;;;;;;;;;;;;;4996631;28;20400;-68
2022/05/11 16:35:16;;;;;;;;;;;;;;;;;;4996502;28;19913;-68
2022/05/11 16:37:42;;;;;;;;;;;;;;;;;;4996431;28;19913;-68
2022/05/11 16:40:08;;;;;;;;;;;;;;;;;;4996162;28;19956;-68
2022/05/11 16:42:34;;;;;;;;;;;;;;;;;;4996106;28;20353;-68
2022/05/11 16:45:00;;;;;;;;;;;;;;;;;;4995983;28;19956;-68
2022/05/11 16:47:26;;;;;;;;;;;;;;;;;;4996046;28;19910;-68
2022/05/11 16:49:52;;;;;;;;;;;;;;;;;;4996017;28;20008;-68
2022/05/11 16:52:18;;;;;;;;;;;;;;;;;;4995903;28;20391;-68
2022/05/11 16:54:44;;;;;;;;;;;;;;;;;;4995660;28;20007;-68
2022/05/11 16:57:10;;;;;;;;;;;;;;;;;;4995723;28;20265;-68
2022/05/11 16:59:36;;;;;;;;;;;;;;;;;;4995653;28;20008;-68
2022/05/11 17:02:02;;;;;;;;;;;;;;;;;;4994578;28;19913;-71
2022/05/11 17:04:29;;;;;;;;;;;;;;;;;;4994377;28;19910;-68
2022/05/11 17:06:55;;;;;;;;;;;;;;;;;;4994624;28;19956;-68
2022/05/11 17:09:21;;;;;;;;;;;;;;;;;;4993315;28;19910;-68
2022/05/11 17:11:48;;;;;;;;;;;;;;;;;;4984738;28;19918;-68
2022/05/11 17:14:14;;;;;;;;;;;;;;;;;;4985443;28;19909;-67
2022/05/11 17:16:40;;;;;;;;;;;;;;;;;;4985514;28;19917;-67
2022/05/11 17:19:07;;;;;;;;;;;;;;;;;;4984107;28;19926;-67
2022/05/11 17:21:34;;;;;;;;;;;;;;;;;;4985892;28;19910;-68
2022/05/11 17:23:59;;;;;;;;;;;;;;;;;;4985426;28;20000;-68
2022/05/11 17:26:25;;;;;;;;;;;;;;;;;;4985912;28;19945;-68
2022/05/11 17:28:51;;;;;;;;;;;;;;;;;;4984571;28;19920;-68
2022/05/11 17:31:17;;;;;;;;;;;;;;;;;;4984402;28;20272;-68
2022/05/11 17:33:43;;;;;;;;;;;;;;;;;;4986004;28;19910;-67
2022/05/11 17:36:09;;;;;;;;;;;;;;;;;;4984488;28;19910;-68
2022/05/11 17:38:35;;;;;;;;;;;;;;;;;;4986118;28;20328;-67
2022/05/11 17:41:01;;;;;;;;;;;;;;;;;;4984094;28;19913;-68
2022/05/11 17:43:27;;;;;;;;;;;;;;;;;;4975138;28;19925;-68
2022/05/11 17:45:55;;;;;;;;;;;;;;;;;;4987203;28;19910;-69